Time;durP1;ratioP1;P1;durP2;ratioP2;P2;SDS_P1;SDS_P2;PMS_P1;PMS_P2;Temp;Humidity;BMP_temperature;BMP_pressure;BME280_temperature;BME280_humidity;BME280_pressure;Samples;Min_cycle;Max_cycle;Signal;HPM_P1;HPM_P2
2022/02/09 00:00:02;;;;;;;10.35;5.70;;;;;;;;;;773586;178;918519;-64
2022/02/09 00:02:37;;;;;;;6.23;5.63;;;;;;;;;;779860;180;919756;-63
2022/02/09 00:05:22;;;;;;;7.87;6.22;;;;;;;;;;772534;177;919918;-64
2022/02/09 00:07:49;;;;;;;9.67;5.63;;;;;;;;;;764813;181;920123;-64
2022/02/09 00:10:05;;;;;;;10.20;6.77;;;;;;;;;;771340;177;918248;-62
2022/02/09 00:12:39;;;;;;;6.18;4.55;;;;;;;;;;771376;180;928897;-63
2022/02/09 00:15:16;;;;;;;8.43;5.70;;;;;;;;;;780631;177;918957;-63
2022/02/09 00:17:40;;;;;;;8.43;5.93;;;;;;;;;;773943;179;919213;-64
2022/02/09 00:20:24;;;;;;;6.30;5.50;;;;;;;;;;774476;179;919409;-65
2022/02/09 00:22:46;;;;;;;6.43;5.67;;;;;;;;;;774364;176;919486;-64
2022/02/09 00:25:24;;;;;;;12.90;6.97;;;;;;;;;;771107;180;919755;-61
2022/02/09 00:27:56;;;;;;;7.30;5.40;;;;;;;;;;763257;181;919470;-64
2022/02/09 00:34:03;;;;;;;8.33;6.23;;;;;;;;;;772588;179;1018775;-63
2022/02/09 00:36:09;;;;;;;10.40;5.05;;;;;;;;;;765994;180;916560;-63
2022/02/09 00:43:45;;;;;;;11.07;6.53;;;;;;;;;;770457;178;918743;-64
2022/02/09 01:02:44;;;;;;;8.43;6.23;;;;;;;;;;769313;179;919898;-63
2022/02/09 01:12:20;;;;;;;10.40;7.00;;;;;;;;;;774260;180;919764;-63
2022/02/09 01:39:59;;;;;;;7.30;5.87;;;;;;;;;;768474;182;918229;-62
2022/02/09 01:57:38;;;;;;;7.07;5.87;;;;;;;;;;771515;182;919172;-63
2022/02/09 02:00:05;;;;;;;6.35;5.18;;;;;;;;;;772575;181;918812;-63
2022/02/09 02:02:30;;;;;;;7.37;5.67;;;;;;;;;;773418;178;920388;-62
2022/02/09 02:04:56;;;;;;;9.00;6.23;;;;;;;;;;777106;181;919302;-63
2022/02/09 02:07:36;;;;;;;6.87;5.90;;;;;;;;;;773965;178;919456;-63
2022/02/09 02:09:52;;;;;;;10.70;6.60;;;;;;;;;;772418;180;919645;-63
2022/02/09 02:12:20;;;;;;;14.23;6.93;;;;;;;;;;779496;179;919187;-61
2022/02/09 02:14:48;;;;;;;7.63;6.37;;;;;;;;;;775193;178;917811;-63
2022/02/09 02:17:18;;;;;;;12.53;6.87;;;;;;;;;;773056;179;951052;-63
2022/02/09 02:19:45;;;;;;;14.87;8.30;;;;;;;;;;762051;178;919911;-63
2022/02/09 02:22:25;;;;;;;8.33;6.60;;;;;;;;;;756083;183;941020;-63
2022/02/09 02:24:59;;;;;;;11.63;7.80;;;;;;;;;;760135;182;918759;-62
2022/02/09 02:27:20;;;;;;;11.30;6.60;;;;;;;;;;772855;180;919002;-62
2022/02/09 02:29:52;;;;;;;8.52;6.37;;;;;;;;;;770768;178;918958;-62
2022/02/09 02:35:17;;;;;;;13.37;7.50;;;;;;;;;;774861;177;917446;-62
2022/02/09 02:38:55;;;;;;;12.07;7.40;;;;;;;;;;773142;177;918281;-62
2022/02/09 02:40:12;;;;;;;8.13;6.60;;;;;;;;;;779133;177;919054;-62
2022/02/09 02:43:18;;;;;;;8.90;6.50;;;;;;;;;;772096;179;917772;-62
2022/02/09 02:46:01;;;;;;;15.27;9.30;;;;;;;;;;762985;179;1021096;-62
2022/02/09 02:47:45;;;;;;;9.97;7.30;;;;;;;;;;761801;181;921432;-62
2022/02/09 02:58:03;;;;;;;10.07;7.47;;;;;;;;;;774254;181;920091;-62
2022/02/09 03:13:11;;;;;;;13.88;8.30;;;;;;;;;;773717;179;919290;-63
2022/02/09 03:15:40;;;;;;;10.67;7.17;;;;;;;;;;769840;179;920559;-63
2022/02/09 03:18:23;;;;;;;8.90;7.23;;;;;;;;;;777758;180;922326;-63
2022/02/09 03:20:38;;;;;;;13.40;8.67;;;;;;;;;;771772;181;919753;-63
2022/02/09 03:23:01;;;;;;;11.20;7.93;;;;;;;;;;763124;181;918800;-63
2022/02/09 03:25:41;;;;;;;12.53;7.93;;;;;;;;;;776715;179;916478;-63
2022/02/09 03:30:56;;;;;;;14.50;8.68;;;;;;;;;;766300;180;915772;-63
2022/02/09 03:30:58;;;;;;;8.70;6.90;;;;;;;;;;765332;180;916552;-63
2022/02/09 03:43:25;;;;;;;14.65;8.48;;;;;;;;;;760026;180;918500;-62
2022/02/09 03:51:10;;;;;;;13.03;8.47;;;;;;;;;;771866;178;906015;-63
2022/02/09 03:53:26;;;;;;;12.93;9.83;;;;;;;;;;775554;178;1019060;-63
2022/02/09 03:55:48;;;;;;;17.03;9.50;;;;;;;;;;772853;180;917536;-63
2022/02/09 03:58:07;;;;;;;13.20;8.57;;;;;;;;;;772763;180;919273;-63
2022/02/09 04:00:37;;;;;;;12.20;9.37;;;;;;;;;;773776;180;919221;-63
2022/02/09 04:03:00;;;;;;;13.10;8.90;;;;;;;;;;771758;178;921501;-63
2022/02/09 04:05:26;;;;;;;12.55;8.70;;;;;;;;;;767539;178;919319;-63
2022/02/09 04:07:51;;;;;;;12.67;9.63;;;;;;;;;;772979;178;920236;-62
2022/02/09 04:10:22;;;;;;;18.43;10.17;;;;;;;;;;779484;177;918409;-63
2022/02/09 04:13:00;;;;;;;13.93;9.50;;;;;;;;;;774529;181;918628;-63
2022/02/09 04:15:23;;;;;;;11.27;9.50;;;;;;;;;;768282;177;919452;-63
2022/02/09 04:17:58;;;;;;;12.50;8.73;;;;;;;;;;773301;180;919321;-62
2022/02/09 04:20:24;;;;;;;11.97;7.00;;;;;;;;;;768152;181;918554;-63
2022/02/09 04:38:01;;;;;;;14.40;8.73;;;;;;;;;;770867;180;919664;-63
2022/02/09 04:43:31;;;;;;;12.00;8.40;;;;;;;;;;769470;181;919146;-62
2022/02/09 04:46:05;;;;;;;11.17;8.43;;;;;;;;;;767634;180;919318;-62
2022/02/09 04:51:03;;;;;;;9.40;7.20;;;;;;;;;;776500;180;919319;-63
2022/02/09 04:54:15;;;;;;;10.17;7.27;;;;;;;;;;772795;181;920225;-63
2022/02/09 04:55:56;;;;;;;7.57;6.27;;;;;;;;;;772090;177;919358;-62
2022/02/09 05:01:15;;;;;;;10.43;7.07;;;;;;;;;;763082;180;620987;-63
2022/02/09 05:03:58;;;;;;;11.60;5.30;;;;;;;;;;767113;181;635913;-63
2022/02/09 05:19:22;;;;;;;11.60;6.03;;;;;;;;;;768900;178;624971;-63
2022/02/09 05:24:05;;;;;;;8.50;6.20;;;;;;;;;;774419;180;919696;-63
2022/02/09 05:26:23;;;;;;;9.60;5.80;;;;;;;;;;770277;180;920023;-63
2022/02/09 05:28:45;;;;;;;9.40;7.10;;;;;;;;;;777263;178;916344;-62
2022/02/09 05:31:11;;;;;;;11.00;7.03;;;;;;;;;;763905;177;915743;-63
2022/02/09 05:33:37;;;;;;;7.18;6.10;;;;;;;;;;768244;180;919979;-63
2022/02/09 05:36:03;;;;;;;8.70;5.90;;;;;;;;;;771874;181;918365;-63
2022/02/09 05:38:28;;;;;;;7.07;5.77;;;;;;;;;;773225;177;919094;-63
2022/02/09 05:40:54;;;;;;;10.43;5.40;;;;;;;;;;774471;180;918707;-62
2022/02/09 05:43:24;;;;;;;9.87;6.00;;;;;;;;;;772621;180;919441;-62
2022/02/09 05:46:32;;;;;;;7.10;5.70;;;;;;;;;;778896;178;920065;-63
2022/02/09 05:51:23;;;;;;;7.73;6.30;;;;;;;;;;774732;181;1021699;-63
2022/02/09 05:54:02;;;;;;;6.87;5.97;;;;;;;;;;769440;180;919691;-63
2022/02/09 05:56:32;;;;;;;6.00;4.73;;;;;;;;;;769172;181;626719;-63
2022/02/09 05:58:49;;;;;;;5.40;4.90;;;;;;;;;;760639;180;616269;-63
2022/02/09 06:01:12;;;;;;;6.37;4.10;;;;;;;;;;779071;179;630432;-63
2022/02/09 06:03:38;;;;;;;6.13;4.77;;;;;;;;;;778832;180;634288;-63
2022/02/09 06:06:04;;;;;;;14.03;5.53;;;;;;;;;;776574;180;919352;-63
2022/02/09 06:08:31;;;;;;;10.83;5.80;;;;;;;;;;764675;181;919508;-62
2022/02/09 06:13:45;;;;;;;5.83;4.60;;;;;;;;;;770147;180;919652;-63
2022/02/09 06:20:58;;;;;;;13.20;9.73;;;;;;;;;;774851;179;918770;-63
2022/02/09 06:23:22;;;;;;;10.83;7.90;;;;;;;;;;767008;179;920502;-63
2022/02/09 06:25:48;;;;;;;12.30;9.73;;;;;;;;;;772429;178;919538;-63
2022/02/09 06:28:13;;;;;;;11.90;9.50;;;;;;;;;;781073;179;915589;-63
2022/02/09 06:30:39;;;;;;;11.17;8.50;;;;;;;;;;776959;180;625045;-63
2022/02/09 06:33:05;;;;;;;11.90;8.80;;;;;;;;;;779641;180;628032;-63
2022/02/09 06:35:32;;;;;;;12.07;8.40;;;;;;;;;;769813;180;918826;-63
2022/02/09 06:37:59;;;;;;;14.00;8.03;;;;;;;;;;776419;180;919470;-63
2022/02/09 06:40:23;;;;;;;10.05;7.95;;;;;;;;;;773507;180;920653;-63
2022/02/09 06:42:49;;;;;;;11.03;7.53;;;;;;;;;;774429;180;919475;-62
2022/02/09 06:45:20;;;;;;;12.70;9.87;;;;;;;;;;771013;180;922698;-63
2022/02/09 06:47:41;;;;;;;9.03;7.37;;;;;;;;;;761394;180;919708;-62
2022/02/09 06:50:12;;;;;;;13.73;8.17;;;;;;;;;;774323;178;919297;-63
2022/02/09 06:52:33;;;;;;;9.00;7.03;;;;;;;;;;778778;177;918739;-62
2022/02/09 06:57:45;;;;;;;11.43;7.83;;;;;;;;;;775983;180;919233;-63
2022/02/09 06:59:56;;;;;;;12.57;8.27;;;;;;;;;;769251;180;919723;-62
2022/02/09 07:02:22;;;;;;;12.53;8.03;;;;;;;;;;776625;180;919101;-63
2022/02/09 07:04:49;;;;;;;10.20;7.60;;;;;;;;;;772309;177;919744;-62
2022/02/09 07:07:14;;;;;;;9.37;7.63;;;;;;;;;;773185;178;919866;-63
2022/02/09 07:09:40;;;;;;;13.70;8.30;;;;;;;;;;780506;181;919391;-63
2022/02/09 07:12:06;;;;;;;11.40;7.87;;;;;;;;;;774078;180;921358;-63
2022/02/09 07:14:32;;;;;;;10.52;8.43;;;;;;;;;;774254;177;918834;-63
2022/02/09 07:16:58;;;;;;;11.47;8.70;;;;;;;;;;779931;177;916304;-62
2022/02/09 07:19:24;;;;;;;12.30;8.60;;;;;;;;;;772603;181;915468;-63
2022/02/09 07:21:49;;;;;;;9.63;7.70;;;;;;;;;;775197;180;919429;-63
2022/02/09 07:24:19;;;;;;;11.10;7.78;;;;;;;;;;769558;180;918718;-62
2022/02/09 07:26:49;;;;;;;13.83;9.47;;;;;;;;;;776480;181;921347;-64
2022/02/09 07:29:07;;;;;;;10.43;8.27;;;;;;;;;;768830;181;1022015;-62
2022/02/09 07:31:33;;;;;;;12.50;8.23;;;;;;;;;;771024;179;918731;-63
2022/02/09 07:33:59;;;;;;;10.80;8.13;;;;;;;;;;775994;179;920627;-63
2022/02/09 07:36:27;;;;;;;12.27;8.37;;;;;;;;;;774755;177;919761;-63
2022/02/09 07:38:51;;;;;;;10.93;8.33;;;;;;;;;;774324;179;918050;-61
2022/02/09 07:41:18;;;;;;;17.37;9.60;;;;;;;;;;778567;180;919260;-63
2022/02/09 07:43:48;;;;;;;12.60;9.87;;;;;;;;;;775345;180;932022;-63
2022/02/09 07:46:25;;;;;;;15.23;9.63;;;;;;;;;;767209;180;918800;-67
2022/02/09 07:51:27;;;;;;;10.80;9.70;;;;;;;;;;776564;180;913965;-62
2022/02/09 07:53:49;;;;;;;15.02;9.30;;;;;;;;;;777662;177;919750;-63
2022/02/09 07:56:10;;;;;;;13.10;10.30;;;;;;;;;;771854;177;918901;-62
2022/02/09 07:58:36;;;;;;;14.60;10.57;;;;;;;;;;773374;179;919363;-62
2022/02/09 08:01:02;;;;;;;17.67;8.43;;;;;;;;;;766200;180;919900;-63
2022/02/09 08:03:28;;;;;;;14.73;9.80;;;;;;;;;;764706;181;919290;-61
2022/02/09 08:05:53;;;;;;;13.83;10.07;;;;;;;;;;769061;182;918562;-63
2022/02/09 08:08:19;;;;;;;13.37;10.43;;;;;;;;;;768043;182;919382;-62
2022/02/09 08:10:50;;;;;;;15.17;11.43;;;;;;;;;;772195;178;918529;-62
2022/02/09 08:22:31;;;;;;;18.17;11.27;;;;;;;;;;772558;180;920149;-63
2022/02/09 08:24:09;;;;;;;13.90;10.33;;;;;;;;;;772882;179;919107;-62
2022/02/09 08:28:51;;;;;;;16.50;12.27;;;;;;;;;;753431;181;919373;-63
2022/02/09 08:31:44;;;;;;;16.90;10.93;;;;;;;;;;745450;185;919149;-63
2022/02/09 08:33:51;;;;;;;16.30;10.80;;;;;;;;;;759481;182;943176;-62
2022/02/09 08:36:17;;;;;;;18.50;12.47;;;;;;;;;;777930;180;919384;-62
2022/02/09 08:38:44;;;;;;;14.90;10.80;;;;;;;;;;767422;180;920683;-62
2022/02/09 08:41:09;;;;;;;17.10;11.63;;;;;;;;;;766087;181;918773;-62
2022/02/09 08:43:35;;;;;;;16.63;11.00;;;;;;;;;;776672;178;919307;-63
2022/02/09 08:46:00;;;;;;;15.83;10.23;;;;;;;;;;773046;180;919567;-62
2022/02/09 08:48:26;;;;;;;14.98;10.27;;;;;;;;;;773047;179;919256;-62
2022/02/09 08:50:52;;;;;;;13.90;10.63;;;;;;;;;;772225;181;919349;-62
2022/02/09 08:53:18;;;;;;;13.53;10.03;;;;;;;;;;773545;180;918999;-62
2022/02/09 08:55:44;;;;;;;19.27;11.40;;;;;;;;;;774468;178;918926;-62
2022/02/09 08:58:10;;;;;;;12.37;9.23;;;;;;;;;;772053;177;918743;-63
2022/02/09 09:00:37;;;;;;;16.37;9.50;;;;;;;;;;780394;180;920175;-62
2022/02/09 09:03:10;;;;;;;16.13;9.70;;;;;;;;;;760387;180;918941;-62
2022/02/09 09:05:39;;;;;;;14.52;10.30;;;;;;;;;;765975;182;919357;-62
2022/02/09 09:08:09;;;;;;;11.90;8.40;;;;;;;;;;773662;181;919863;-62
2022/02/09 09:10:30;;;;;;;15.73;7.60;;;;;;;;;;774939;180;919718;-63
2022/02/09 09:18:39;;;;;;;10.30;6.67;;;;;;;;;;778518;180;919241;-63
2022/02/09 09:41:59;;;;;;;14.13;8.47;;;;;;;;;;773937;178;919630;-62
2022/02/09 09:58:45;;;;;;;16.63;12.27;;;;;;;;;;768345;181;915102;-62
2022/02/09 10:01:18;;;;;;;13.37;10.70;;;;;;;;;;762589;181;919276;-62
2022/02/09 10:03:48;;;;;;;14.53;10.40;;;;;;;;;;773010;179;918687;-63
2022/02/09 10:32:21;;;;;;;17.90;9.83;;;;;;;;;;765576;181;918788;-62
2022/02/09 10:34:20;;;;;;;12.17;9.00;;;;;;;;;;772444;180;616933;-63
2022/02/09 10:36:45;;;;;;;12.90;9.30;;;;;;;;;;770608;181;644910;-62
2022/02/09 10:39:11;;;;;;;12.63;10.00;;;;;;;;;;775007;180;918239;-62
2022/02/09 10:41:42;;;;;;;14.20;9.00;;;;;;;;;;781916;180;884519;-62
2022/02/09 10:44:01;;;;;;;11.37;8.40;;;;;;;;;;767084;178;919881;-62
2022/02/09 10:46:27;;;;;;;12.80;8.73;;;;;;;;;;770750;177;918254;-62
2022/02/09 10:48:55;;;;;;;11.17;8.40;;;;;;;;;;767616;181;916698;-62
2022/02/09 10:51:22;;;;;;;11.70;6.97;;;;;;;;;;761838;181;915453;-62
2022/02/09 10:54:00;;;;;;;11.50;7.60;;;;;;;;;;777111;180;919356;-63
2022/02/09 10:56:26;;;;;;;16.60;6.95;;;;;;;;;;773869;179;915190;-63
2022/02/09 10:58:52;;;;;;;10.57;7.80;;;;;;;;;;763014;181;921419;-62
2022/02/09 11:01:17;;;;;;;9.93;8.37;;;;;;;;;;778307;179;920103;-63
2022/02/09 11:03:44;;;;;;;10.07;6.63;;;;;;;;;;775909;179;919961;-62
2022/02/09 11:06:10;;;;;;;9.90;7.20;;;;;;;;;;769028;180;920353;-63
2022/02/09 11:08:36;;;;;;;9.33;6.80;;;;;;;;;;775655;177;918740;-62
2022/02/09 11:11:02;;;;;;;9.00;6.12;;;;;;;;;;770788;180;1017508;-62
2022/02/09 11:13:28;;;;;;;9.97;7.50;;;;;;;;;;773862;177;916498;-62
2022/02/09 11:15:54;;;;;;;11.18;7.40;;;;;;;;;;774453;179;916031;-63
2022/02/09 11:18:19;;;;;;;8.87;6.20;;;;;;;;;;751326;184;919809;-62
2022/02/09 11:20:52;;;;;;;9.80;6.15;;;;;;;;;;771484;177;919799;-63
2022/02/09 11:23:26;;;;;;;9.97;7.30;;;;;;;;;;773186;178;918471;-62
2022/02/09 11:25:54;;;;;;;11.10;8.30;;;;;;;;;;779264;177;919903;-62
2022/02/09 11:28:15;;;;;;;10.97;6.77;;;;;;;;;;769873;177;918787;-62
2022/02/09 11:30:46;;;;;;;10.20;7.17;;;;;;;;;;766795;181;919540;-62
2022/02/09 11:33:30;;;;;;;9.60;7.33;;;;;;;;;;773869;180;1021949;-61
2022/02/09 11:35:55;;;;;;;11.48;8.00;;;;;;;;;;762017;180;918929;-62
2022/02/09 11:38:25;;;;;;;9.13;7.30;;;;;;;;;;772140;180;918238;-61
2022/02/09 11:41:04;;;;;;;8.87;6.20;;;;;;;;;;762410;180;918548;-62
2022/02/09 11:43:44;;;;;;;10.90;7.40;;;;;;;;;;770780;180;919754;-61
2022/02/09 11:46:26;;;;;;;10.07;7.10;;;;;;;;;;772135;178;1021640;-62
2022/02/09 11:49:20;;;;;;;18.95;7.22;;;;;;;;;;771327;179;919193;-63
2022/02/09 11:52:54;;;;;;;10.50;8.30;;;;;;;;;;771767;178;918899;-62
2022/02/09 11:57:10;;;;;;;11.87;7.80;;;;;;;;;;772926;180;919003;-62
2022/02/09 12:10:09;;;;;;;12.07;7.07;;;;;;;;;;767368;181;926881;-62
2022/02/09 12:12:39;;;;;;;14.30;7.80;;;;;;;;;;773838;181;920532;-62
2022/02/09 12:15:14;;;;;;;13.43;7.50;;;;;;;;;;773552;180;919145;-62
2022/02/09 12:20:24;;;;;;;9.70;7.12;;;;;;;;;;771620;177;919039;-62
2022/02/09 12:23:01;;;;;;;13.03;8.57;;;;;;;;;;767278;177;918787;-64
2022/02/09 12:25:12;;;;;;;8.80;6.73;;;;;;;;;;769023;180;918816;-62
2022/02/09 12:27:38;;;;;;;11.23;7.03;;;;;;;;;;777805;180;922196;-61
2022/02/09 12:30:07;;;;;;;9.77;7.03;;;;;;;;;;771988;180;918483;-62
2022/02/09 12:32:35;;;;;;;10.30;8.10;;;;;;;;;;770823;179;919738;-62
2022/02/09 12:35:00;;;;;;;8.30;6.60;;;;;;;;;;766586;180;919302;-62
2022/02/09 12:37:26;;;;;;;11.52;7.50;;;;;;;;;;773728;180;919057;-63
2022/02/09 12:39:53;;;;;;;11.37;8.40;;;;;;;;;;773185;179;918912;-61
2022/02/09 12:42:20;;;;;;;10.80;7.50;;;;;;;;;;769589;181;918695;-62
2022/02/09 12:44:51;;;;;;;8.67;6.93;;;;;;;;;;766033;181;919697;-64
2022/02/09 12:47:17;;;;;;;13.33;7.97;;;;;;;;;;772970;180;919501;-62
2022/02/09 12:49:43;;;;;;;13.23;7.90;;;;;;;;;;772932;181;920318;-62
2022/02/09 12:52:09;;;;;;;15.77;7.47;;;;;;;;;;758152;180;1019939;-62
2022/02/09 12:54:35;;;;;;;10.77;7.20;;;;;;;;;;768445;180;919079;-62
2022/02/09 12:57:01;;;;;;;12.65;6.95;;;;;;;;;;772223;180;919249;-62
2022/02/09 12:59:27;;;;;;;11.63;7.50;;;;;;;;;;776904;180;943143;-62
2022/02/09 13:01:53;;;;;;;9.60;7.13;;;;;;;;;;773449;180;918883;-62
2022/02/09 13:04:25;;;;;;;8.00;6.63;;;;;;;;;;769775;178;919460;-61
2022/02/09 13:06:51;;;;;;;8.65;6.95;;;;;;;;;;779213;180;919005;-62
2022/02/09 13:09:17;;;;;;;8.97;6.60;;;;;;;;;;762963;180;920681;-62
2022/02/09 13:11:42;;;;;;;10.13;6.10;;;;;;;;;;766404;179;920175;-62
2022/02/09 13:14:13;;;;;;;7.47;6.00;;;;;;;;;;764390;181;920176;-62
2022/02/09 13:16:55;;;;;;;10.10;6.00;;;;;;;;;;777189;180;919412;-62
2022/02/09 13:19:40;;;;;;;7.57;5.93;;;;;;;;;;775592;179;918937;-62
2022/02/09 13:25:28;;;;;;;8.57;6.37;;;;;;;;;;780681;179;647329;-62
2022/02/09 14:11:21;;;;;;;8.67;4.70;;;;;;;;;;771965;180;921039;-62
2022/02/09 14:13:52;;;;;;;5.70;4.17;;;;;;;;;;776556;181;917961;-61
2022/02/09 14:18:48;;;;;;;8.80;4.83;;;;;;;;;;774915;178;920763;-61
2022/02/09 14:34:44;;;;;;;5.00;3.80;;;;;;;;;;771842;179;919207;-63
2022/02/09 14:50:00;;;;;;;8.63;5.47;;;;;;;;;;771455;180;920788;-62
2022/02/09 14:56:58;;;;;;;7.68;5.47;;;;;;;;;;771590;179;920411;-64
2022/02/09 14:59:30;;;;;;;9.43;6.00;;;;;;;;;;768564;179;918827;-62
2022/02/09 15:01:51;;;;;;;8.60;5.87;;;;;;;;;;765289;177;920286;-62
2022/02/09 15:07:02;;;;;;;6.67;4.77;;;;;;;;;;773181;179;919557;-62
2022/02/09 15:09:21;;;;;;;9.83;5.70;;;;;;;;;;769118;181;919289;-62
2022/02/09 15:14:22;;;;;;;8.07;5.37;;;;;;;;;;772203;178;978090;-63
2022/02/09 15:16:54;;;;;;;8.50;5.60;;;;;;;;;;777926;180;914250;-63
2022/02/09 15:19:19;;;;;;;7.43;5.60;;;;;;;;;;779243;177;914236;-62
2022/02/09 15:24:10;;;;;;;7.77;5.77;;;;;;;;;;774929;180;919301;-62
2022/02/09 15:26:35;;;;;;;8.47;5.80;;;;;;;;;;778945;178;955940;-62
2022/02/09 15:29:00;;;;;;;7.10;5.50;;;;;;;;;;772956;180;1021907;-62
2022/02/09 15:31:37;;;;;;;6.97;5.70;;;;;;;;;;772545;180;919056;-63
2022/02/09 15:34:09;;;;;;;11.47;7.10;;;;;;;;;;772346;178;937854;-62
2022/02/09 15:36:35;;;;;;;22.40;8.37;;;;;;;;;;771797;180;904838;-62
2022/02/09 15:38:46;;;;;;;9.13;6.77;;;;;;;;;;760214;182;919665;-62
2022/02/09 15:41:24;;;;;;;9.90;6.47;;;;;;;;;;763647;181;919248;-63
2022/02/09 15:44:07;;;;;;;9.00;6.90;;;;;;;;;;777566;179;918076;-63
2022/02/09 15:56:24;;;;;;;9.20;6.67;;;;;;;;;;780067;177;919196;-62
2022/02/09 16:20:18;;;;;;;9.13;6.27;;;;;;;;;;768820;180;918930;-62
2022/02/09 16:22:24;;;;;;;9.27;6.80;;;;;;;;;;764920;181;919907;-61
2022/02/09 16:36:16;;;;;;;9.65;7.28;;;;;;;;;;772133;180;968988;-61
2022/02/09 16:37:48;;;;;;;12.73;9.17;;;;;;;;;;766029;180;919515;-61
2022/02/09 16:45:09;;;;;;;13.37;8.20;;;;;;;;;;769442;179;649014;-61
2022/02/09 16:50:24;;;;;;;14.33;8.33;;;;;;;;;;776082;178;816395;-61
2022/02/09 16:52:50;;;;;;;14.20;8.90;;;;;;;;;;773183;178;919482;-61
2022/02/09 16:55:35;;;;;;;10.37;7.50;;;;;;;;;;767374;180;918853;-62
2022/02/09 17:18:46;;;;;;;8.95;6.93;;;;;;;;;;778610;179;916732;-62
2022/02/09 17:20:36;;;;;;;12.43;8.70;;;;;;;;;;774679;177;918538;-63
2022/02/09 17:23:02;;;;;;;12.60;7.90;;;;;;;;;;774097;180;662903;-64
2022/02/09 17:25:28;;;;;;;9.83;6.63;;;;;;;;;;780112;180;617132;-63
2022/02/09 17:27:54;;;;;;;9.90;7.40;;;;;;;;;;775225;178;628060;-62
2022/02/09 17:33:08;;;;;;;7.73;6.13;;;;;;;;;;774033;180;919079;-62
2022/02/09 17:35:25;;;;;;;11.30;6.40;;;;;;;;;;765589;180;919056;-62
2022/02/09 17:38:18;;;;;;;8.77;5.10;;;;;;;;;;771554;180;630855;-63
2022/02/09 17:58:10;;;;;;;10.20;6.20;;;;;;;;;;780639;180;614682;-62
2022/02/09 18:00:31;;;;;;;7.30;5.13;;;;;;;;;;771080;178;919939;-63
2022/02/09 18:02:57;;;;;;;9.13;6.03;;;;;;;;;;773898;180;627400;-62
2022/02/09 18:05:29;;;;;;;7.83;5.73;;;;;;;;;;762227;181;629309;-62
2022/02/09 18:07:54;;;;;;;9.63;5.23;;;;;;;;;;779963;180;626953;-62
2022/02/09 18:10:32;;;;;;;12.73;7.50;;;;;;;;;;776232;180;917745;-62
2022/02/09 18:13:17;;;;;;;7.80;5.27;;;;;;;;;;770915;180;919266;-62
2022/02/09 18:15:43;;;;;;;11.40;7.50;;;;;;;;;;774285;177;917725;-63
2022/02/09 18:25:43;;;;;;;7.27;5.17;;;;;;;;;;774912;179;624088;-63
2022/02/09 18:30:35;;;;;;;10.40;5.93;;;;;;;;;;775769;180;916669;-64
2022/02/09 18:38:23;;;;;;;6.40;4.50;;;;;;;;;;774995;180;919486;-62
2022/02/09 18:43:17;;;;;;;6.73;4.83;;;;;;;;;;766061;178;1019040;-63
2022/02/09 18:45:46;;;;;;;7.70;5.20;;;;;;;;;;779056;180;616034;-63
2022/02/09 18:48:27;;;;;;;7.40;4.70;;;;;;;;;;772785;180;918683;-62
2022/02/09 18:59:04;;;;;;;10.07;6.90;;;;;;;;;;772819;180;918744;-62
2022/02/09 19:03:28;;;;;;;8.80;4.90;;;;;;;;;;768169;178;919528;-61
2022/02/09 19:05:51;;;;;;;7.67;4.80;;;;;;;;;;767598;181;621801;-62
2022/02/09 19:08:32;;;;;;;5.77;4.53;;;;;;;;;;779449;180;620259;-62
2022/02/09 19:16:03;;;;;;;6.17;4.70;;;;;;;;;;770763;178;918735;-61
2022/02/09 19:18:32;;;;;;;11.23;5.97;;;;;;;;;;774899;179;918285;-61
2022/02/09 19:26:12;;;;;;;8.57;4.47;;;;;;;;;;773901;179;641889;-62
2022/02/09 19:31:13;;;;;;;8.00;4.83;;;;;;;;;;752339;182;918785;-61
2022/02/09 19:47:12;;;;;;;7.60;5.67;;;;;;;;;;774058;178;914249;-61
2022/02/09 19:49:37;;;;;;;9.37;5.60;;;;;;;;;;774993;178;919193;-62
2022/02/09 19:52:02;;;;;;;9.40;6.23;;;;;;;;;;772295;177;919058;-61
2022/02/09 19:54:27;;;;;;;8.50;5.77;;;;;;;;;;776404;180;919626;-63
2022/02/09 19:56:45;;;;;;;6.37;5.57;;;;;;;;;;770449;178;918851;-62
2022/02/09 19:59:14;;;;;;;6.83;4.53;;;;;;;;;;772381;178;919163;-62
2022/02/09 20:01:35;;;;;;;6.87;4.93;;;;;;;;;;769164;180;919264;-63
2022/02/09 20:03:58;;;;;;;7.80;5.40;;;;;;;;;;764130;181;919015;-61
2022/02/09 20:06:24;;;;;;;7.70;4.70;;;;;;;;;;768591;181;918084;-62
2022/02/09 20:08:50;;;;;;;7.80;5.30;;;;;;;;;;771907;177;918991;-61
2022/02/09 20:11:17;;;;;;;8.90;5.33;;;;;;;;;;775006;180;1019426;-62
2022/02/09 20:13:42;;;;;;;9.37;6.27;;;;;;;;;;774964;180;919877;-61
2022/02/09 20:16:08;;;;;;;9.32;6.25;;;;;;;;;;770513;180;919413;-61
2022/02/09 20:18:33;;;;;;;8.50;6.83;;;;;;;;;;776490;179;919518;-61
2022/02/09 20:20:59;;;;;;;10.85;6.62;;;;;;;;;;771135;181;919960;-61
2022/02/09 20:23:27;;;;;;;10.77;6.37;;;;;;;;;;773305;180;919449;-62
2022/02/09 20:25:51;;;;;;;10.70;6.30;;;;;;;;;;778567;178;918856;-61
2022/02/09 20:28:17;;;;;;;13.83;7.37;;;;;;;;;;769609;180;919600;-61
2022/02/09 20:30:48;;;;;;;13.47;8.27;;;;;;;;;;775765;179;920042;-61
2022/02/09 20:33:10;;;;;;;12.23;7.80;;;;;;;;;;776644;180;920027;-61
2022/02/09 20:35:34;;;;;;;11.47;7.37;;;;;;;;;;773021;179;919084;-61
2022/02/09 20:38:00;;;;;;;9.83;7.43;;;;;;;;;;771336;177;919067;-61
2022/02/09 20:40:35;;;;;;;11.32;6.53;;;;;;;;;;774825;180;918895;-61
2022/02/09 20:42:58;;;;;;;11.23;8.30;;;;;;;;;;779008;180;920166;-61
2022/02/09 20:47:59;;;;;;;12.40;7.70;;;;;;;;;;771688;177;919771;-61
2022/02/09 20:50:19;;;;;;;9.83;7.10;;;;;;;;;;773486;180;919519;-61
2022/02/09 20:52:45;;;;;;;11.33;8.00;;;;;;;;;;771567;180;919663;-62
2022/02/09 20:55:11;;;;;;;9.87;7.03;;;;;;;;;;771287;180;919446;-62
2022/02/09 20:57:37;;;;;;;9.55;6.30;;;;;;;;;;771940;180;918909;-61
2022/02/09 21:00:08;;;;;;;8.77;6.57;;;;;;;;;;773308;180;1018366;-62
2022/02/09 21:02:44;;;;;;;8.87;5.93;;;;;;;;;;769610;180;919539;-61
2022/02/09 21:05:09;;;;;;;9.77;6.77;;;;;;;;;;764969;178;918965;-61
2022/02/09 21:07:40;;;;;;;7.87;6.17;;;;;;;;;;765206;181;919488;-61
2022/02/09 21:10:11;;;;;;;8.40;6.37;;;;;;;;;;777769;179;919368;-62
2022/02/09 21:12:38;;;;;;;8.70;5.90;;;;;;;;;;770318;177;919565;-62
2022/02/09 21:20:41;;;;;;;8.37;6.10;;;;;;;;;;772496;181;919738;-62
2022/02/09 21:23:17;;;;;;;9.60;6.57;;;;;;;;;;766540;180;919331;-62
2022/02/09 21:29:08;;;;;;;13.07;7.50;;;;;;;;;;769082;181;918695;-62
2022/02/09 21:33:39;;;;;;;10.87;7.00;;;;;;;;;;774132;180;919498;-62
2022/02/09 21:44:28;;;;;;;10.13;7.50;;;;;;;;;;784796;178;918762;-62
2022/02/09 21:52:09;;;;;;;11.60;7.60;;;;;;;;;;773799;179;919874;-61
2022/02/09 21:54:53;;;;;;;8.37;6.30;;;;;;;;;;773428;179;919135;-62
2022/02/09 21:56:33;;;;;;;8.20;6.53;;;;;;;;;;769493;181;919372;-62
2022/02/09 21:59:43;;;;;;;9.10;6.90;;;;;;;;;;772740;179;918314;-61
2022/02/09 22:01:40;;;;;;;9.80;6.87;;;;;;;;;;767850;177;918260;-62
2022/02/09 22:06:55;;;;;;;11.17;8.30;;;;;;;;;;772852;181;919058;-62
2022/02/09 22:19:20;;;;;;;13.60;8.10;;;;;;;;;;770063;177;918775;-61
2022/02/09 22:29:52;;;;;;;12.37;7.97;;;;;;;;;;767862;180;919177;-61
2022/02/09 22:32:33;;;;;;;12.70;8.20;;;;;;;;;;765737;182;919338;-63
2022/02/09 22:47:56;;;;;;;14.10;9.70;;;;;;;;;;776902;181;918897;-61
2022/02/09 22:50:09;;;;;;;14.43;8.97;;;;;;;;;;764965;183;923255;-62
2022/02/09 22:55:18;;;;;;;11.30;7.67;;;;;;;;;;774670;179;918980;-62
2022/02/09 22:57:53;;;;;;;12.90;8.50;;;;;;;;;;773784;177;922194;-62
2022/02/09 23:00:18;;;;;;;13.20;8.50;;;;;;;;;;771531;177;918978;-62
2022/02/09 23:02:48;;;;;;;12.73;8.83;;;;;;;;;;778975;177;922847;-62
2022/02/09 23:05:33;;;;;;;11.97;8.70;;;;;;;;;;774552;177;916002;-62
2022/02/09 23:07:54;;;;;;;12.17;8.50;;;;;;;;;;772041;180;948619;-63
2022/02/09 23:10:14;;;;;;;13.30;8.40;;;;;;;;;;772102;178;920055;-63
2022/02/09 23:15:25;;;;;;;11.57;8.70;;;;;;;;;;764664;181;918506;-60
2022/02/09 23:18:24;;;;;;;12.17;8.30;;;;;;;;;;770632;179;918580;-61
2022/02/09 23:21:29;;;;;;;15.50;8.80;;;;;;;;;;773135;178;918827;-61
2022/02/09 23:23:34;;;;;;;14.10;8.80;;;;;;;;;;770631;180;919614;-61
2022/02/09 23:26:14;;;;;;;11.37;8.07;;;;;;;;;;774330;180;919662;-62
2022/02/09 23:54:26;;;;;;;14.60;10.10;;;;;;;;;;771036;177;921032;-62
2022/02/09 23:56:28;;;;;;;15.73;9.90;;;;;;;;;;763679;182;915968;-62
